Weather at Thompson Airport

Public forecast

Using degrees Celsius for public forecast. Weather courtesy of forecast.io.

Current aviation weather report (METAR) for Thompson Airport

Retrieved 2020/10/21 14:00 UTC (46 minutes ago):

CYTH 211400Z 00000KT 15SM SCT075 OVC082 M06/M07 A3005 RMK AC4AC4 SLP196

Aviation forecast (TAF) for Thompson Airport

Retrieved 2020/10/21 13:39 UTC (1 hour ago):

TAF CYTH 211238Z 2113/2201 VRB03KT P6SM FEW030 BKN070 TEMPO 2113/2201 P6SM -SN BKN030 OVC070 RMK NXT FCST BY 211900Z